createdAt,value
2018-11-13T00:00:50.305Z,59.53
2018-11-13T00:01:50.311Z,59.73
2018-11-13T00:02:50.359Z,59.82
2018-11-13T00:03:50.343Z,59.92
2018-11-13T00:04:50.361Z,59.82
2018-11-13T00:05:50.382Z,59.34
2018-11-13T00:06:50.397Z,59.44
2018-11-13T00:07:50.407Z,59.34
2018-11-13T00:08:50.473Z,59.44
2018-11-13T00:09:50.647Z,59.44
2018-11-13T00:10:50.460Z,59.44
2018-11-13T00:11:50.471Z,59.16
2018-11-13T00:12:50.491Z,59.44
2018-11-13T00:13:50.513Z,59.44
2018-11-13T00:14:50.591Z,59.34
2018-11-13T00:15:50.541Z,59.44
2018-11-13T00:16:50.555Z,59.44
2018-11-13T00:17:50.567Z,59.44
2018-11-13T00:18:50.595Z,59.34
2018-11-13T00:19:50.610Z,59.44
2018-11-13T00:20:50.619Z,59.44
2018-11-13T00:21:50.643Z,59.44
2018-11-13T00:22:50.665Z,59.34
2018-11-13T00:23:50.716Z,59.53
2018-11-13T00:24:50.692Z,59.25
2018-11-13T00:25:50.714Z,59.44
2018-11-13T00:26:50.719Z,59.44
2018-11-13T00:27:50.743Z,59.44
2018-11-13T00:28:50.761Z,59.44
2018-11-13T00:29:50.785Z,59.44
2018-11-13T00:30:50.794Z,59.34
2018-11-13T00:31:50.803Z,59.34
2018-11-13T00:32:50.813Z,59.44
2018-11-13T00:33:50.844Z,59.16
2018-11-13T00:34:50.857Z,59.25
2018-11-13T00:35:50.895Z,59.63
2018-11-13T00:36:50.893Z,59.53
2018-11-13T00:37:50.909Z,59.25
2018-11-13T00:38:50.924Z,59.53
2018-11-13T00:39:50.964Z,59.25
2018-11-13T00:40:50.951Z,59.34
2018-11-13T00:41:50.973Z,59.44
2018-11-13T00:42:50.989Z,59.34
2018-11-13T00:43:50.999Z,59.34
2018-11-13T00:44:51.023Z,59.34
2018-11-13T00:45:51.097Z,59.25
2018-11-13T00:46:51.056Z,59.34
2018-11-13T00:47:51.062Z,59.63
2018-11-13T00:48:51.083Z,59.34
2018-11-13T00:49:51.105Z,59.44
2018-11-13T00:50:51.120Z,59.34
2018-11-13T00:51:51.131Z,59.44
2018-11-13T00:52:51.151Z,59.44
2018-11-13T00:53:51.163Z,59.44
2018-11-13T00:54:51.195Z,59.25
2018-11-13T00:55:51.201Z,59.34
2018-11-13T00:56:51.214Z,59.25
2018-11-13T00:57:51.232Z,59.25
2018-11-13T00:58:51.241Z,59.25
2018-11-13T00:59:51.269Z,59.44
2018-11-13T01:00:51.294Z,59.53
2018-11-13T01:01:51.313Z,59.53
2018-11-13T01:02:51.311Z,59.44
2018-11-13T01:03:51.331Z,59.34
2018-11-13T01:04:51.347Z,59.53
2018-11-13T01:05:51.464Z,59.44
2018-11-13T01:06:51.375Z,59.34
2018-11-13T01:07:51.886Z,59.44
2018-11-13T01:08:51.413Z,59.63
2018-11-13T01:09:51.427Z,59.63
2018-11-13T01:10:51.444Z,59.25
2018-11-13T01:11:51.525Z,59.44
2018-11-13T01:12:51.681Z,59.25
2018-11-13T01:13:51.492Z,59.25
2018-11-13T01:14:51.572Z,59.25
2018-11-13T01:15:51.533Z,59.34
2018-11-13T01:16:51.549Z,59.25
2018-11-13T01:17:51.561Z,59.44
2018-11-13T01:18:51.578Z,59.34
2018-11-13T01:19:51.590Z,59.16
2018-11-13T01:20:51.610Z,59.25
2018-11-13T01:21:51.656Z,59.34
2018-11-13T01:22:51.637Z,59.34
2018-11-13T01:23:51.669Z,59.44
2018-11-13T01:24:51.675Z,59.25
2018-11-13T01:25:51.683Z,59.22
2018-11-13T01:26:51.703Z,59.34
2018-11-13T01:27:51.719Z,59.25
2018-11-13T01:28:51.737Z,59.51
2018-11-13T01:29:51.759Z,59.31
2018-11-13T01:30:51.778Z,59.31
2018-11-13T01:31:51.810Z,59.44
2018-11-13T01:32:51.803Z,59.41
2018-11-13T01:33:51.819Z,59.51
2018-11-13T01:34:51.831Z,59.25
2018-11-13T01:35:51.851Z,59.22
2018-11-13T01:36:51.871Z,59.34
2018-11-13T01:37:51.961Z,59.34
2018-11-13T01:38:51.898Z,58.97
2018-11-13T01:39:51.922Z,59.51
2018-11-13T01:40:51.933Z,59.34
2018-11-13T01:41:51.955Z,59.63
2018-11-13T01:42:51.967Z,59.25
2018-11-13T01:43:52.023Z,59.25
2018-11-13T01:44:52.003Z,59.34
2018-11-13T01:45:52.015Z,59.25
2018-11-13T01:46:52.035Z,59.34
2018-11-13T01:47:52.088Z,59.34
2018-11-13T01:48:52.067Z,59.44
2018-11-13T01:49:52.155Z,59.44
2018-11-13T01:50:52.102Z,59.34
2018-11-13T01:51:52.116Z,59.34
2018-11-13T01:52:52.127Z,59.44
2018-11-13T01:53:52.147Z,59.44
2018-11-13T01:54:52.164Z,59.25
2018-11-13T01:55:52.262Z,59.34
2018-11-13T01:56:52.191Z,59.34
2018-11-13T01:57:52.207Z,59.34
2018-11-13T01:58:52.231Z,59.34
2018-11-13T01:59:52.246Z,59.34
2018-11-13T02:00:52.263Z,59.34
2018-11-13T02:01:52.362Z,59.16
2018-11-13T02:02:52.290Z,59.16
2018-11-13T02:03:52.310Z,59.82
2018-11-13T02:04:52.327Z,59.82
2018-11-13T02:05:52.343Z,59.73
2018-11-13T02:06:52.359Z,59.82
2018-11-13T02:07:52.414Z,59.82
2018-11-13T02:08:52.398Z,59.44
2018-11-13T02:09:52.411Z,59.82
2018-11-13T02:10:52.427Z,59.82
2018-11-13T02:11:52.446Z,59.53
2018-11-13T02:12:52.458Z,59.73
2018-11-13T02:13:52.499Z,59.82
2018-11-13T02:14:52.491Z,59.53
2018-11-13T02:15:52.507Z,59.73
2018-11-13T02:16:52.522Z,59.63
2018-11-13T02:17:52.543Z,59.63
2018-11-13T02:18:52.555Z,59.53
2018-11-13T02:19:52.578Z,59.92
2018-11-13T02:20:52.589Z,59.63
2018-11-13T02:21:52.607Z,59.53
2018-11-13T02:22:52.626Z,59.92
2018-11-13T02:23:52.638Z,59.53
2018-11-13T02:24:52.647Z,59.82
2018-11-13T02:25:52.662Z,59.63
2018-11-13T02:26:52.678Z,59.92
2018-11-13T02:27:52.704Z,59.63
2018-11-13T02:28:52.715Z,59.53
2018-11-13T02:29:52.735Z,59.53
2018-11-13T02:30:52.747Z,59.63
2018-11-13T02:31:52.768Z,59.53
2018-11-13T02:32:52.895Z,59.73
2018-11-13T02:33:52.799Z,59.63
2018-11-13T02:34:52.811Z,59.82
2018-11-13T02:35:52.832Z,59.82
2018-11-13T02:36:52.847Z,59.63
2018-11-13T02:37:52.869Z,59.63
2018-11-13T02:38:52.882Z,59.82
2018-11-13T02:39:52.894Z,59.73
2018-11-13T02:40:52.911Z,59.82
2018-11-13T02:41:52.931Z,59.63
2018-11-13T02:42:52.944Z,59.44
2018-11-13T02:43:53.044Z,59.44
2018-11-13T02:44:52.978Z,59.82
2018-11-13T02:46:53.013Z,59.73
2018-11-13T02:47:53.034Z,59.16
2018-11-13T02:49:53.059Z,59.82
2018-11-13T02:50:53.076Z,59.82
2018-11-13T02:51:53.088Z,59.16
2018-11-13T02:52:53.117Z,59.34
2018-11-13T02:53:53.124Z,59.25
2018-11-13T02:54:53.144Z,59.44
2018-11-13T02:55:53.155Z,59.34
2018-11-13T02:56:53.172Z,59.63
2018-11-13T02:57:53.192Z,59.44
2018-11-13T02:58:53.204Z,59.34
2018-11-13T02:59:53.219Z,59.34
2018-11-13T03:00:53.242Z,59.34
2018-11-13T03:01:53.257Z,59.34
2018-11-13T03:02:53.275Z,59.34
2018-11-13T03:03:53.284Z,59.34
2018-11-13T03:04:53.304Z,59.34
2018-11-13T03:05:53.324Z,59.25
2018-11-13T03:06:53.340Z,59.34
2018-11-13T03:07:53.355Z,59.34
2018-11-13T03:08:53.368Z,59.34
2018-11-13T03:09:53.388Z,59.16
2018-11-13T03:10:53.394Z,59.25
2018-11-13T03:11:53.421Z,59.25
2018-11-13T03:12:53.435Z,59.16
2018-11-13T03:13:53.492Z,59.34
2018-11-13T03:14:53.471Z,59.31
2018-11-13T03:15:53.493Z,59.25
2018-11-13T03:16:53.496Z,59.34
2018-11-13T03:17:53.520Z,59.16
2018-11-13T03:18:53.533Z,59.34
2018-11-13T03:19:53.544Z,59.34
2018-11-13T03:20:53.567Z,59.31
2018-11-13T03:21:53.580Z,59.31
2018-11-13T03:22:53.596Z,59.31
2018-11-13T03:23:53.616Z,59.22
2018-11-13T03:24:53.632Z,59.12
2018-11-13T03:25:53.640Z,59.41
2018-11-13T03:26:53.657Z,59.41
2018-11-13T03:27:53.672Z,59.41
2018-11-13T03:28:53.692Z,59.31
2018-11-13T03:29:53.709Z,59.31
2018-11-13T03:30:53.742Z,59.31
2018-11-13T03:31:53.738Z,59.31
2018-11-13T03:32:53.761Z,59.22
2018-11-13T03:33:53.776Z,59.22
2018-11-13T03:34:53.793Z,59.22
2018-11-13T03:35:53.803Z,59.41
2018-11-13T03:36:53.821Z,59.31
2018-11-13T03:37:53.848Z,59.41
2018-11-13T03:38:53.857Z,59.31
2018-11-13T03:39:53.872Z,59.31
2018-11-13T03:40:53.884Z,59.31
2018-11-13T03:41:53.901Z,59.31
2018-11-13T03:42:53.924Z,59.22
2018-11-13T03:43:53.938Z,59.03
2018-11-13T03:44:53.948Z,59.41
2018-11-13T03:45:53.964Z,59.41
2018-11-13T03:46:53.984Z,59.41
2018-11-13T03:47:54.003Z,59.31
2018-11-13T03:48:54.021Z,59.51
2018-11-13T03:49:54.052Z,59.22
2018-11-13T03:50:54.052Z,59.60
2018-11-13T03:51:54.061Z,59.22
2018-11-13T03:52:54.087Z,59.12
2018-11-13T03:53:54.104Z,59.31
2018-11-13T03:54:54.112Z,59.51
2018-11-13T03:55:54.160Z,59.31
2018-11-13T03:56:54.140Z,59.41
2018-11-13T03:57:54.159Z,59.51
2018-11-13T03:58:54.173Z,59.60
2018-11-13T03:59:54.193Z,59.60
2018-11-13T04:02:01.640Z,59.22
2018-11-13T04:02:54.244Z,59.31
2018-11-13T04:03:54.256Z,59.31
2018-11-13T04:04:54.274Z,59.51
2018-11-13T04:05:54.288Z,59.41
2018-11-13T04:06:54.309Z,59.51
2018-11-13T04:07:54.420Z,59.31
2018-11-13T04:08:54.340Z,59.31
2018-11-13T04:09:54.352Z,59.22
2018-11-13T04:10:54.378Z,59.51
2018-11-13T04:11:54.387Z,59.22
2018-11-13T04:12:54.409Z,59.31
2018-11-13T04:13:54.486Z,59.31
2018-11-13T04:14:54.431Z,59.31
2018-11-13T04:15:54.453Z,59.22
2018-11-13T04:16:54.464Z,59.03
2018-11-13T04:17:54.489Z,59.41
2018-11-13T04:18:54.504Z,59.31
2018-11-13T04:19:54.524Z,59.41
2018-11-13T04:20:54.533Z,59.22
2018-11-13T04:21:54.553Z,59.12
2018-11-13T04:22:54.568Z,59.31
2018-11-13T04:23:54.581Z,59.31
2018-11-13T04:24:54.597Z,59.22
2018-11-13T04:25:54.710Z,59.41
2018-11-13T04:26:54.637Z,59.31
2018-11-13T04:27:54.650Z,59.31
2018-11-13T04:28:54.662Z,59.22
2018-11-13T04:29:54.680Z,59.12
2018-11-13T04:30:54.767Z,59.22
2018-11-13T04:31:54.713Z,59.12
2018-11-13T04:32:54.740Z,59.22
2018-11-13T04:33:54.742Z,59.31
2018-11-13T04:34:54.765Z,59.41
2018-11-13T04:35:54.778Z,59.31
2018-11-13T04:36:54.794Z,59.31
2018-11-13T04:37:54.814Z,59.22
2018-11-13T04:38:54.830Z,59.31
2018-11-13T04:39:54.849Z,59.12
2018-11-13T04:40:54.866Z,59.31
2018-11-13T04:41:54.886Z,59.22
2018-11-13T04:42:54.892Z,59.41
2018-11-13T04:43:54.911Z,59.41
2018-11-13T04:44:54.934Z,59.31
2018-11-13T04:45:54.938Z,59.22
2018-11-13T04:46:54.961Z,59.31
2018-11-13T04:47:54.979Z,59.22
2018-11-13T04:48:54.995Z,59.31
2018-11-13T04:49:55.012Z,59.41
2018-11-13T04:50:55.027Z,59.31
2018-11-13T04:51:55.038Z,59.31
2018-11-13T04:52:55.059Z,59.51
2018-11-13T04:53:55.071Z,59.31
2018-11-13T04:54:55.093Z,59.28
2018-11-13T04:55:55.116Z,59.31
2018-11-13T04:56:55.166Z,59.51
2018-11-13T04:57:55.138Z,59.51
2018-11-13T04:58:55.151Z,59.12
2018-11-13T04:59:55.166Z,59.31
2018-11-13T05:00:55.178Z,59.38
2018-11-13T05:01:55.210Z,59.19
2018-11-13T05:02:55.321Z,59.09
2018-11-13T05:03:55.233Z,59.38
2018-11-13T05:04:55.255Z,59.38
2018-11-13T05:05:55.263Z,59.48
2018-11-13T05:06:55.294Z,59.48
2018-11-13T05:07:55.299Z,59.28
2018-11-13T05:08:55.315Z,59.38
2018-11-13T05:09:55.335Z,59.28
2018-11-13T05:10:55.351Z,59.28
2018-11-13T05:11:55.363Z,59.19
2018-11-13T05:12:55.378Z,59.28
2018-11-13T05:13:55.403Z,59.38
2018-11-13T05:14:55.415Z,59.48
2018-11-13T05:15:55.431Z,59.28
2018-11-13T05:16:55.443Z,59.48
2018-11-13T05:17:55.464Z,59.28
2018-11-13T05:18:55.480Z,59.48
2018-11-13T05:19:55.495Z,59.19
2018-11-13T05:20:55.516Z,59.28
2018-11-13T05:21:55.531Z,59.19
2018-11-13T05:22:55.559Z,59.38
2018-11-13T05:23:55.559Z,59.38
2018-11-13T05:24:55.580Z,59.38
2018-11-13T05:25:55.590Z,59.19
2018-11-13T05:26:55.604Z,59.38
2018-11-13T05:27:55.620Z,59.28
2018-11-13T05:28:55.635Z,59.38
2018-11-13T05:29:55.659Z,59.09
2018-11-13T05:30:55.672Z,59.67
2018-11-13T05:31:55.687Z,59.70
2018-11-13T05:32:55.708Z,59.51
2018-11-13T05:33:55.720Z,59.70
2018-11-13T05:34:55.736Z,59.60
2018-11-13T05:35:55.756Z,59.67
2018-11-13T05:36:55.768Z,59.79
2018-11-13T05:37:55.788Z,59.57
2018-11-13T05:38:55.807Z,59.51
2018-11-13T05:39:55.816Z,59.70
2018-11-13T05:40:55.836Z,59.79
2018-11-13T05:41:55.852Z,59.79
2018-11-13T05:42:55.873Z,59.79
2018-11-13T05:43:55.880Z,59.79
2018-11-13T05:44:55.899Z,59.70
2018-11-13T05:45:55.912Z,59.57
2018-11-13T05:46:55.947Z,59.67
2018-11-13T05:47:55.949Z,59.48
2018-11-13T05:48:55.960Z,59.48
2018-11-13T05:49:55.988Z,59.86
2018-11-13T05:50:55.997Z,59.48
2018-11-13T05:51:56.008Z,59.67
2018-11-13T05:52:56.033Z,59.57
2018-11-13T05:53:56.036Z,59.60
2018-11-13T05:54:56.057Z,59.99
2018-11-13T05:55:56.076Z,59.79
2018-11-13T05:56:56.091Z,59.95
2018-11-13T05:57:56.101Z,59.86
2018-11-13T05:58:56.117Z,59.70
2018-11-13T05:59:56.201Z,59.86
2018-11-13T06:00:56.156Z,60.36
2018-11-13T06:01:56.173Z,60.27
2018-11-13T06:02:56.241Z,60.27
2018-11-13T06:03:56.201Z,60.17
2018-11-13T06:04:56.220Z,60.36
2018-11-13T06:05:56.239Z,60.17
2018-11-13T06:06:56.253Z,60.14
2018-11-13T06:07:56.269Z,60.08
2018-11-13T06:08:56.289Z,60.27
2018-11-13T06:09:56.296Z,60.08
2018-11-13T06:10:56.310Z,60.08
2018-11-13T06:11:56.333Z,60.08
2018-11-13T06:12:56.349Z,60.05
2018-11-13T06:13:56.413Z,60.24
2018-11-13T06:14:56.381Z,60.24
2018-11-13T06:15:56.397Z,60.24
2018-11-13T06:16:56.410Z,60.24
2018-11-13T06:17:56.437Z,60.33
2018-11-13T06:18:56.449Z,60.24
2018-11-13T06:19:56.465Z,60.24
2018-11-13T06:20:56.471Z,60.17
2018-11-13T06:21:56.498Z,60.05
2018-11-13T06:22:56.546Z,60.17
2018-11-13T06:23:56.526Z,60.14
2018-11-13T06:24:56.541Z,59.95
2018-11-13T06:25:56.585Z,59.89
2018-11-13T06:26:56.569Z,60.08
2018-11-13T06:27:56.586Z,60.05
2018-11-13T06:28:56.598Z,60.08
2018-11-13T06:29:56.619Z,60.08
2018-11-13T06:30:56.636Z,60.08
2018-11-13T06:31:56.666Z,60.27
2018-11-13T06:32:56.666Z,60.36
2018-11-13T06:33:56.683Z,60.27
2018-11-13T06:34:56.703Z,60.14
2018-11-13T06:35:56.718Z,60.05
2018-11-13T06:36:56.734Z,60.05
2018-11-13T06:37:56.749Z,60.05
2018-11-13T06:38:56.871Z,60.24
2018-11-13T06:39:56.778Z,60.05
2018-11-13T06:40:56.793Z,59.95
2018-11-13T06:41:56.814Z,59.95
2018-11-13T06:42:56.830Z,60.33
2018-11-13T06:43:56.842Z,60.05
2018-11-13T06:44:56.862Z,60.14
2018-11-13T06:45:56.874Z,60.14
2018-11-13T06:46:56.897Z,60.14
2018-11-13T06:47:56.906Z,59.95
2018-11-13T06:48:57.080Z,59.95
2018-11-13T06:49:56.942Z,59.95
2018-11-13T06:50:56.966Z,60.05
2018-11-13T06:51:56.973Z,59.95
2018-11-13T06:52:56.997Z,59.95
2018-11-13T06:53:57.010Z,60.05
2018-11-13T06:54:57.013Z,60.24
2018-11-13T06:55:57.030Z,59.95
2018-11-13T06:56:57.048Z,59.86
2018-11-13T06:57:57.066Z,59.67
2018-11-13T06:58:57.082Z,59.57
2018-11-13T06:59:57.101Z,59.48
2018-11-13T07:00:57.117Z,59.38
2018-11-13T07:01:57.130Z,60.05
2018-11-13T07:02:57.146Z,59.76
2018-11-13T07:03:57.166Z,59.86
2018-11-13T07:04:57.242Z,59.95
2018-11-13T07:05:57.197Z,59.86
2018-11-13T07:06:57.214Z,59.76
2018-11-13T07:07:57.238Z,59.86
2018-11-13T07:08:57.241Z,59.95
2018-11-13T07:09:57.262Z,59.95
2018-11-13T07:10:57.410Z,60.05
2018-11-13T07:11:57.298Z,59.67
2018-11-13T07:12:57.310Z,59.67
2018-11-13T07:13:57.326Z,59.76
2018-11-13T07:14:57.347Z,59.57
2018-11-13T07:15:57.357Z,59.76
2018-11-13T07:16:57.378Z,59.95
2018-11-13T07:17:57.394Z,59.95
2018-11-13T07:18:57.406Z,59.95
2018-11-13T07:19:57.422Z,59.86
2018-11-13T07:20:57.441Z,60.05
2018-11-13T07:21:57.466Z,59.86
2018-11-13T07:22:57.473Z,60.33
2018-11-13T07:23:57.493Z,59.57
2018-11-13T07:24:57.501Z,59.86
2018-11-13T07:25:57.522Z,59.76
2018-11-13T07:26:57.547Z,60.24
2018-11-13T07:27:57.571Z,60.14
2018-11-13T07:28:57.567Z,60.33
2018-11-13T07:29:57.586Z,60.14
2018-11-13T07:30:57.604Z,60.14
2018-11-13T07:31:57.634Z,60.14
2018-11-13T07:32:57.637Z,60.24
2018-11-13T07:33:57.642Z,60.33
2018-11-13T07:34:57.662Z,60.24
2018-11-13T07:35:57.683Z,60.05
2018-11-13T07:36:57.706Z,60.14
2018-11-13T07:37:57.710Z,60.14
2018-11-13T07:38:57.725Z,60.05
2018-11-13T07:39:57.749Z,59.95
2018-11-13T07:40:57.836Z,60.14
2018-11-13T07:41:57.778Z,60.14
2018-11-13T07:42:57.791Z,59.95
2018-11-13T07:43:57.811Z,60.17
2018-11-13T07:44:57.824Z,60.65
2018-11-13T07:45:57.838Z,60.49
2018-11-13T07:46:57.964Z,61.83
2018-11-13T07:47:57.969Z,61.95
2018-11-13T07:48:57.891Z,62.71
2018-11-13T07:49:57.913Z,63.03
2018-11-13T07:50:57.979Z,62.75
2018-11-13T07:51:57.938Z,63.13
2018-11-13T07:52:57.956Z,63.16
2018-11-13T07:53:58.231Z,63.19
2018-11-13T07:54:57.988Z,63.29
2018-11-13T07:55:58.002Z,63.39
2018-11-13T07:56:58.023Z,63.13
2018-11-13T07:57:58.039Z,63.13
2018-11-13T07:58:58.050Z,62.65
2018-11-13T07:59:58.074Z,62.49
2018-11-13T08:00:58.091Z,62.23
2018-11-13T08:01:58.110Z,61.85
2018-11-13T08:02:58.130Z,60.93
2018-11-13T08:03:58.146Z,60.83
2018-11-13T08:04:58.158Z,61.72
2018-11-13T08:05:58.179Z,60.72
2018-11-13T08:06:58.195Z,59.74
2018-11-13T08:07:58.243Z,59.64
2018-11-13T08:08:58.234Z,60.25
2018-11-13T08:09:58.254Z,59.51
2018-11-13T08:10:58.268Z,58.45
2018-11-13T08:11:58.294Z,58.87
2018-11-13T08:12:58.339Z,57.93
2018-11-13T08:13:58.383Z,56.92
2018-11-13T08:14:58.405Z,57.75
2018-11-13T08:15:58.371Z,58.26
2018-11-13T08:16:58.387Z,58.10
2018-11-13T08:17:58.408Z,57.23
2018-11-13T08:18:58.473Z,57.07
2018-11-13T08:19:58.447Z,56.33
2018-11-13T08:20:58.476Z,55.76
2018-11-13T08:21:58.502Z,54.12
2018-11-13T08:22:58.502Z,54.47
2018-11-13T08:23:58.523Z,55.18
2018-11-13T08:24:58.542Z,55.18
2018-11-13T08:25:58.564Z,55.43
2018-11-13T08:26:58.707Z,53.59
2018-11-13T08:27:58.609Z,53.17
2018-11-13T08:28:58.702Z,51.60
2018-11-13T08:29:58.642Z,52.34
2018-11-13T08:30:58.667Z,52.66
2018-11-13T08:31:58.739Z,52.85
2018-11-13T08:32:58.699Z,51.84
2018-11-13T08:33:58.727Z,51.65
2018-11-13T08:34:58.851Z,51.05
2018-11-13T08:35:58.767Z,51.26
2018-11-13T08:36:58.783Z,50.78
2018-11-13T08:37:58.851Z,51.07
2018-11-13T08:38:58.833Z,50.21
2018-11-13T08:39:58.847Z,50.49
2018-11-13T08:40:58.867Z,49.82
2018-11-13T08:41:58.895Z,50.49
2018-11-13T08:42:58.915Z,50.52
2018-11-13T08:43:58.947Z,50.42
2018-11-13T08:44:58.955Z,50.35
2018-11-13T08:45:58.984Z,50.16
2018-11-13T08:46:58.999Z,49.80
2018-11-13T08:47:59.019Z,49.63
2018-11-13T08:48:59.035Z,49.27
2018-11-13T08:49:59.111Z,48.49
2018-11-13T08:50:59.095Z,49.17
2018-11-13T08:51:59.107Z,48.42
2018-11-13T08:52:59.127Z,47.74
2018-11-13T08:53:59.155Z,46.95
2018-11-13T08:54:59.172Z,47.63
2018-11-13T08:55:59.275Z,48.57
2018-11-13T08:56:59.211Z,49.53
2018-11-13T08:57:59.237Z,49.73
2018-11-13T08:58:59.335Z,49.34
2018-11-13T08:59:59.279Z,48.97
2018-11-13T09:00:59.307Z,48.69
2018-11-13T09:01:59.327Z,48.08
2018-11-13T09:02:59.347Z,48.79
2018-11-13T09:03:59.367Z,48.30
2018-11-13T09:04:59.404Z,48.66
2018-11-13T09:05:59.416Z,48.95
2018-11-13T09:06:59.435Z,48.59
2018-11-13T09:07:59.455Z,48.32
2018-11-13T09:08:59.477Z,47.63
2018-11-13T09:09:59.495Z,48.13
2018-11-13T09:10:59.527Z,48.13
2018-11-13T09:11:59.713Z,47.65
2018-11-13T09:12:59.563Z,47.94
2018-11-13T09:13:59.593Z,46.37
2018-11-13T09:14:59.616Z,48.39
2018-11-13T09:15:59.637Z,48.23
2018-11-13T09:16:59.656Z,47.84
2018-11-13T09:17:59.717Z,47.05
2018-11-13T09:18:59.842Z,47.07
2018-11-13T09:19:59.723Z,47.86
2018-11-13T09:20:59.744Z,46.80
2018-11-13T09:21:59.761Z,46.90
2018-11-13T09:22:59.797Z,47.65
2018-11-13T09:23:59.807Z,47.94
2018-11-13T09:24:59.831Z,47.96
2018-11-13T09:25:59.883Z,47.55
2018-11-13T09:26:59.879Z,47.72
2018-11-13T09:27:59.900Z,48.81
2018-11-13T09:28:59.923Z,47.65
2018-11-13T09:30:00.011Z,48.79
2018-11-13T09:31:00.131Z,47.91
2018-11-13T09:31:59.984Z,47.58
2018-11-13T09:33:00.195Z,47.55
2018-11-13T09:34:00.027Z,49.51
2018-11-13T09:35:00.051Z,49.63
2018-11-13T09:36:00.068Z,48.76
2018-11-13T09:37:00.138Z,48.59
2018-11-13T09:38:00.172Z,49.58
2018-11-13T09:39:00.136Z,48.81
2018-11-13T09:40:00.163Z,47.14
2018-11-13T09:41:00.178Z,46.58
2018-11-13T09:42:00.198Z,49.27
2018-11-13T09:43:00.279Z,47.14
2018-11-13T09:44:00.247Z,48.71
2018-11-13T09:45:00.314Z,48.90
2018-11-13T09:46:00.417Z,47.28
2018-11-13T09:47:00.305Z,48.90
2018-11-13T09:48:00.335Z,49.39
2018-11-13T09:49:00.349Z,48.59
2018-11-13T09:50:00.371Z,48.69
2018-11-13T09:51:00.408Z,49.37
2018-11-13T09:52:00.420Z,49.12
2018-11-13T09:53:00.438Z,48.39
2018-11-13T09:54:00.482Z,49.41
2018-11-13T09:55:00.488Z,49.44
2018-11-13T09:56:00.505Z,49.65
2018-11-13T09:57:00.521Z,48.13
2018-11-13T09:58:00.545Z,47.72
2018-11-13T09:59:00.715Z,49.97
2018-11-13T10:00:00.664Z,49.58
2018-11-13T10:01:00.798Z,49.12
2018-11-13T10:02:00.950Z,47.77
2018-11-13T10:03:01.452Z,48.90
2018-11-13T10:04:01.329Z,48.39
2018-11-13T10:05:01.486Z,49.55
2018-11-13T10:06:00.798Z,49.92
2018-11-13T10:07:00.861Z,48.37
2018-11-13T10:08:00.760Z,47.41
2018-11-13T10:09:00.785Z,47.31
2018-11-13T10:10:00.814Z,47.31
2018-11-13T10:11:00.828Z,47.96
2018-11-13T10:12:00.846Z,47.84
2018-11-13T10:13:00.872Z,48.49
2018-11-13T10:14:00.889Z,47.81
2018-11-13T10:15:00.913Z,48.47
2018-11-13T10:16:00.934Z,48.97
2018-11-13T10:17:00.961Z,49.55
2018-11-13T10:18:01.073Z,48.69
2018-11-13T10:19:01.009Z,50.12
2018-11-13T10:20:01.021Z,47.53
2018-11-13T10:21:01.045Z,48.61
2018-11-13T10:22:01.059Z,48.35
2018-11-13T10:23:01.094Z,48.71
2018-11-13T10:24:01.148Z,48.44
2018-11-13T10:25:01.133Z,48.47
2018-11-13T10:26:01.147Z,49.34
2018-11-13T10:27:01.241Z,47.33
2018-11-13T10:28:01.190Z,46.97
2018-11-13T10:29:01.214Z,46.56
2018-11-13T10:30:01.455Z,46.44
2018-11-13T10:31:01.258Z,47.45
2018-11-13T10:32:01.279Z,46.67
2018-11-13T10:33:01.300Z,45.88
2018-11-13T10:34:01.321Z,46.53
2018-11-13T10:35:01.356Z,47.69
2018-11-13T10:36:01.425Z,46.75
2018-11-13T10:37:01.390Z,47.41
2018-11-13T10:38:01.415Z,47.33
2018-11-13T10:39:01.431Z,47.41
2018-11-13T10:40:01.512Z,47.55
2018-11-13T10:41:01.527Z,46.87
2018-11-13T10:42:01.564Z,46.66
2018-11-13T10:43:01.517Z,46.73
2018-11-13T10:44:01.538Z,47.31
2018-11-13T10:45:01.557Z,48.44
2018-11-13T10:46:01.594Z,47.50
2018-11-13T10:47:01.611Z,48.93
2018-11-13T10:48:01.624Z,48.86
2018-11-13T10:49:01.694Z,47.45
2018-11-13T10:50:01.713Z,47.50
2018-11-13T10:51:01.691Z,47.41
2018-11-13T10:52:01.713Z,47.00
2018-11-13T10:53:01.738Z,47.21
2018-11-13T10:54:01.758Z,47.81
2018-11-13T10:55:01.782Z,47.14
2018-11-13T10:56:01.798Z,47.50
2018-11-13T10:57:01.834Z,48.47
2018-11-13T10:58:01.856Z,47.99
2018-11-13T10:59:01.956Z,47.31
2018-11-13T11:00:01.893Z,47.43
2018-11-13T11:01:01.914Z,46.73
2018-11-13T11:02:01.934Z,47.36
2018-11-13T11:03:02.037Z,47.33
2018-11-13T11:04:01.977Z,47.62
2018-11-13T11:05:02.001Z,46.56
2018-11-13T11:06:02.021Z,47.33
2018-11-13T11:07:02.039Z,47.50
2018-11-13T11:08:02.077Z,48.76
2018-11-13T11:09:02.088Z,47.62
2018-11-13T11:10:02.111Z,48.90
2018-11-13T11:11:02.132Z,47.40
2018-11-13T11:12:02.156Z,46.67
2018-11-13T11:13:02.432Z,46.14
2018-11-13T11:14:02.331Z,47.47
2018-11-13T11:15:02.228Z,47.21
2018-11-13T11:16:02.335Z,47.89
2018-11-13T11:17:02.263Z,49.24
2018-11-13T11:18:02.338Z,47.69
2018-11-13T11:19:02.496Z,47.67
2018-11-13T11:20:02.326Z,47.74
2018-11-13T11:21:02.355Z,49.92
2018-11-13T11:22:02.370Z,48.66
2018-11-13T11:23:02.484Z,48.20
2018-11-13T11:24:02.554Z,47.64
2018-11-13T11:25:02.453Z,46.58
2018-11-13T11:26:02.462Z,47.38
2018-11-13T11:27:02.482Z,46.58
2018-11-13T11:28:02.536Z,45.76
2018-11-13T11:29:02.522Z,47.69
2018-11-13T11:30:02.550Z,47.84
2018-11-13T11:31:02.623Z,48.32
2018-11-13T11:32:02.589Z,48.37
2018-11-13T11:33:02.619Z,50.91
2018-11-13T11:34:02.634Z,51.13
2018-11-13T11:35:02.656Z,50.21
2018-11-13T11:36:02.679Z,50.23
2018-11-13T11:37:02.703Z,51.23
2018-11-13T11:38:02.718Z,49.39
2018-11-13T11:39:02.885Z,49.15
2018-11-13T11:40:02.780Z,48.86
2018-11-13T11:41:02.785Z,48.11
2018-11-13T11:42:02.805Z,47.84
2018-11-13T11:43:02.835Z,48.01
2018-11-13T11:44:02.850Z,47.72
2018-11-13T11:45:02.883Z,49.07
2018-11-13T11:46:02.902Z,48.52
2018-11-13T11:47:02.922Z,48.52
2018-11-13T11:48:02.938Z,47.99
2018-11-13T11:49:02.959Z,49.17
2018-11-13T11:50:02.982Z,47.74
2018-11-13T11:51:03.015Z,48.61
2018-11-13T11:52:03.030Z,47.86
2018-11-13T11:53:03.054Z,47.30
2018-11-13T11:54:03.205Z,46.53
2018-11-13T11:55:03.094Z,48.08
2018-11-13T11:56:03.121Z,47.45
2018-11-13T11:57:03.142Z,49.10
2018-11-13T11:58:03.159Z,49.17
2018-11-13T11:59:03.182Z,48.08
2018-11-13T12:00:03.200Z,49.37
2018-11-13T12:01:03.229Z,49.17
2018-11-13T12:02:03.290Z,49.77
2018-11-13T12:03:03.274Z,47.94
2018-11-13T12:04:03.290Z,47.91
2018-11-13T12:05:03.313Z,48.49
2018-11-13T12:06:03.338Z,49.73
2018-11-13T12:07:03.363Z,48.69
2018-11-13T12:08:03.381Z,48.76
2018-11-13T12:09:03.455Z,49.77
2018-11-13T12:10:03.422Z,49.87
2018-11-13T12:11:03.454Z,51.06
2018-11-13T12:12:03.505Z,50.50
2018-11-13T12:13:03.493Z,49.70
2018-11-13T12:14:03.514Z,49.73
2018-11-13T12:15:03.618Z,50.40
2018-11-13T12:16:03.552Z,50.31
2018-11-13T12:17:03.582Z,49.65
2018-11-13T12:18:03.609Z,47.89
2018-11-13T12:19:03.818Z,50.50
2018-11-13T12:20:03.646Z,49.58
2018-11-13T12:21:03.714Z,50.48
2018-11-13T12:22:03.694Z,50.45
2018-11-13T12:23:03.714Z,51.25
2018-11-13T12:24:03.727Z,49.77
2018-11-13T12:25:03.764Z,50.09
2018-11-13T12:26:03.779Z,51.08
2018-11-13T12:27:03.815Z,50.31
2018-11-13T12:28:03.822Z,49.90
2018-11-13T12:29:03.846Z,50.21
2018-11-13T12:30:03.870Z,50.12
2018-11-13T12:31:03.910Z,49.77
2018-11-13T12:32:03.924Z,50.43
2018-11-13T12:33:03.939Z,51.27
2018-11-13T12:34:03.954Z,52.17
2018-11-13T12:35:03.987Z,51.32
2018-11-13T12:36:03.993Z,50.81
2018-11-13T12:37:04.022Z,50.76
2018-11-13T12:38:04.054Z,51.82
2018-11-13T12:39:04.067Z,52.40
2018-11-13T12:40:04.088Z,52.11
2018-11-13T12:41:04.109Z,52.79
2018-11-13T12:42:04.132Z,53.03
2018-11-13T12:43:04.151Z,52.58
2018-11-13T12:44:04.262Z,50.96
2018-11-13T12:45:04.189Z,50.48
2018-11-13T12:46:04.227Z,50.45
2018-11-13T12:47:04.242Z,50.67
2018-11-13T12:48:04.254Z,51.35
2018-11-13T12:49:04.429Z,50.67
2018-11-13T12:50:04.303Z,50.57
2018-11-13T12:51:04.326Z,50.57
2018-11-13T12:52:04.341Z,50.09
2018-11-13T12:53:04.366Z,51.18
2018-11-13T12:54:04.386Z,50.72
2018-11-13T12:55:04.409Z,50.65
2018-11-13T12:56:04.446Z,50.21